sensor_id;sensor_type;location;lat;lon;timestamp;P1;durP1;ratioP1;P2;durP2;ratioP2
10056;SDS011;5068;51.286;7.518;2024-01-27T00:00:51;2.85;;;0.70;;
10056;SDS011;5068;51.286;7.518;2024-01-27T00:02:25;4.32;;;1.02;;
10056;SDS011;5068;51.286;7.518;2024-01-27T00:03:57;3.90;;;0.90;;
10056;SDS011;5068;51.286;7.518;2024-01-27T00:05:30;2.88;;;0.90;;
10056;SDS011;5068;51.286;7.518;2024-01-27T00:07:04;5.72;;;1.15;;
10056;SDS011;5068;51.286;7.518;2024-01-27T00:08:38;3.63;;;0.95;;
10056;SDS011;5068;51.286;7.518;2024-01-27T00:10:11;3.65;;;0.88;;
10056;SDS011;5068;51.286;7.518;2024-01-27T00:11:44;6.00;;;1.02;;
10056;SDS011;5068;51.286;7.518;2024-01-27T00:13:18;2.92;;;0.70;;
10056;SDS011;5068;51.286;7.518;2024-01-27T00:14:50;6.00;;;1.30;;
10056;SDS011;5068;51.286;7.518;2024-01-27T00:16:25;2.45;;;0.75;;
10056;SDS011;5068;51.286;7.518;2024-01-27T00:17:57;2.75;;;0.85;;
10056;SDS011;5068;51.286;7.518;2024-01-27T00:19:31;4.72;;;0.90;;
10056;SDS011;5068;51.286;7.518;2024-01-27T00:21:03;4.93;;;0.95;;
10056;SDS011;5068;51.286;7.518;2024-01-27T00:22:38;5.25;;;0.88;;
10056;SDS011;5068;51.286;7.518;2024-01-27T00:24:10;2.75;;;1.00;;
10056;SDS011;5068;51.286;7.518;2024-01-27T00:25:46;4.05;;;0.80;;
10056;SDS011;5068;51.286;7.518;2024-01-27T00:27:18;3.70;;;0.85;;
10056;SDS011;5068;51.286;7.518;2024-01-27T00:28:52;5.05;;;1.02;;
10056;SDS011;5068;51.286;7.518;2024-01-27T00:30:25;4.72;;;1.20;;
10056;SDS011;5068;51.286;7.518;2024-01-27T00:32:00;4.20;;;0.90;;
10056;SDS011;5068;51.286;7.518;2024-01-27T00:33:33;3.90;;;0.80;;
10056;SDS011;5068;51.286;7.518;2024-01-27T00:35:07;2.88;;;0.70;;
10056;SDS011;5068;51.286;7.518;2024-01-27T00:36:40;6.13;;;1.10;;
10056;SDS011;5068;51.286;7.518;2024-01-27T00:38:19;5.65;;;1.10;;
10056;SDS011;5068;51.286;7.518;2024-01-27T00:39:53;4.65;;;1.00;;
10056;SDS011;5068;51.286;7.518;2024-01-27T00:41:26;5.07;;;0.90;;
10056;SDS011;5068;51.286;7.518;2024-01-27T00:42:59;5.63;;;0.80;;
10056;SDS011;5068;51.286;7.518;2024-01-27T00:44:34;4.50;;;1.10;;
10056;SDS011;5068;51.286;7.518;2024-01-27T00:46:07;3.63;;;1.02;;
10056;SDS011;5068;51.286;7.518;2024-01-27T00:47:41;6.63;;;1.38;;
10056;SDS011;5068;51.286;7.518;2024-01-27T00:49:15;6.93;;;1.00;;
10056;SDS011;5068;51.286;7.518;2024-01-27T00:50:48;5.22;;;0.90;;
10056;SDS011;5068;51.286;7.518;2024-01-27T00:52:21;3.50;;;0.80;;
10056;SDS011;5068;51.286;7.518;2024-01-27T00:53:54;7.22;;;0.90;;
10056;SDS011;5068;51.286;7.518;2024-01-27T00:55:27;4.25;;;0.90;;
10056;SDS011;5068;51.286;7.518;2024-01-27T00:56:59;4.90;;;0.98;;
10056;SDS011;5068;51.286;7.518;2024-01-27T00:58:46;3.88;;;1.00;;
10056;SDS011;5068;51.286;7.518;2024-01-27T01:00:18;3.40;;;0.98;;
10056;SDS011;5068;51.286;7.518;2024-01-27T01:01:52;3.00;;;1.10;;
10056;SDS011;5068;51.286;7.518;2024-01-27T01:03:25;4.03;;;0.93;;
10056;SDS011;5068;51.286;7.518;2024-01-27T01:04:59;3.45;;;1.25;;
10056;SDS011;5068;51.286;7.518;2024-01-27T01:06:31;5.13;;;1.00;;
10056;SDS011;5068;51.286;7.518;2024-01-27T01:08:05;3.15;;;0.88;;
10056;SDS011;5068;51.286;7.518;2024-01-27T01:09:37;4.25;;;1.00;;
10056;SDS011;5068;51.286;7.518;2024-01-27T01:11:11;3.08;;;1.00;;
10056;SDS011;5068;51.286;7.518;2024-01-27T01:12:43;3.83;;;0.98;;
10056;SDS011;5068;51.286;7.518;2024-01-27T01:14:17;4.25;;;1.15;;
10056;SDS011;5068;51.286;7.518;2024-01-27T01:15:49;3.50;;;1.08;;
10056;SDS011;5068;51.286;7.518;2024-01-27T01:17:22;5.20;;;0.90;;
10056;SDS011;5068;51.286;7.518;2024-01-27T01:18:56;3.17;;;1.23;;
10056;SDS011;5068;51.286;7.518;2024-01-27T01:20:29;4.38;;;1.08;;
10056;SDS011;5068;51.286;7.518;2024-01-27T01:22:04;4.22;;;1.00;;
10056;SDS011;5068;51.286;7.518;2024-01-27T01:23:40;2.13;;;0.85;;
10056;SDS011;5068;51.286;7.518;2024-01-27T01:25:13;3.80;;;1.00;;
10056;SDS011;5068;51.286;7.518;2024-01-27T01:26:47;3.58;;;1.02;;
10056;SDS011;5068;51.286;7.518;2024-01-27T01:28:19;5.47;;;1.40;;
10056;SDS011;5068;51.286;7.518;2024-01-27T01:29:52;6.25;;;1.13;;
10056;SDS011;5068;51.286;7.518;2024-01-27T01:31:26;4.57;;;0.93;;
10056;SDS011;5068;51.286;7.518;2024-01-27T01:32:59;4.35;;;0.73;;
10056;SDS011;5068;51.286;7.518;2024-01-27T01:34:33;2.92;;;0.98;;
10056;SDS011;5068;51.286;7.518;2024-01-27T01:36:07;3.83;;;1.23;;
10056;SDS011;5068;51.286;7.518;2024-01-27T01:37:39;2.28;;;0.90;;
10056;SDS011;5068;51.286;7.518;2024-01-27T01:39:13;4.45;;;1.33;;
10056;SDS011;5068;51.286;7.518;2024-01-27T01:40:45;4.10;;;1.02;;
10056;SDS011;5068;51.286;7.518;2024-01-27T01:42:18;3.03;;;1.00;;
10056;SDS011;5068;51.286;7.518;2024-01-27T01:43:54;4.78;;;1.33;;
10056;SDS011;5068;51.286;7.518;2024-01-27T01:45:28;3.33;;;0.98;;
10056;SDS011;5068;51.286;7.518;2024-01-27T01:47:00;3.78;;;0.98;;
10056;SDS011;5068;51.286;7.518;2024-01-27T01:48:34;5.28;;;0.95;;
10056;SDS011;5068;51.286;7.518;2024-01-27T01:50:09;5.53;;;1.33;;
10056;SDS011;5068;51.286;7.518;2024-01-27T01:51:42;3.85;;;1.05;;
10056;SDS011;5068;51.286;7.518;2024-01-27T01:53:16;4.68;;;1.50;;
10056;SDS011;5068;51.286;7.518;2024-01-27T01:54:50;3.20;;;1.15;;
10056;SDS011;5068;51.286;7.518;2024-01-27T01:56:23;4.13;;;1.30;;
10056;SDS011;5068;51.286;7.518;2024-01-27T01:57:57;4.68;;;1.40;;
10056;SDS011;5068;51.286;7.518;2024-01-27T01:59:29;4.88;;;1.20;;
10056;SDS011;5068;51.286;7.518;2024-01-27T02:01:02;3.00;;;0.73;;
10056;SDS011;5068;51.286;7.518;2024-01-27T02:02:36;8.98;;;1.65;;
10056;SDS011;5068;51.286;7.518;2024-01-27T02:04:08;3.83;;;1.42;;
10056;SDS011;5068;51.286;7.518;2024-01-27T02:05:43;4.38;;;1.02;;
10056;SDS011;5068;51.286;7.518;2024-01-27T02:07:15;5.70;;;1.00;;
10056;SDS011;5068;51.286;7.518;2024-01-27T02:08:49;4.32;;;1.25;;
10056;SDS011;5068;51.286;7.518;2024-01-27T02:10:22;4.40;;;1.33;;
10056;SDS011;5068;51.286;7.518;2024-01-27T02:11:55;6.50;;;1.23;;
10056;SDS011;5068;51.286;7.518;2024-01-27T02:13:27;5.95;;;1.23;;
10056;SDS011;5068;51.286;7.518;2024-01-27T02:15:01;2.95;;;1.05;;
10056;SDS011;5068;51.286;7.518;2024-01-27T02:16:34;6.13;;;1.20;;
10056;SDS011;5068;51.286;7.518;2024-01-27T02:18:11;3.72;;;1.13;;
10056;SDS011;5068;51.286;7.518;2024-01-27T02:19:44;3.13;;;0.90;;
10056;SDS011;5068;51.286;7.518;2024-01-27T02:21:19;4.63;;;1.38;;
10056;SDS011;5068;51.286;7.518;2024-01-27T02:22:52;7.13;;;1.65;;
10056;SDS011;5068;51.286;7.518;2024-01-27T02:24:26;4.18;;;1.40;;
10056;SDS011;5068;51.286;7.518;2024-01-27T02:26:00;7.70;;;2.33;;
10056;SDS011;5068;51.286;7.518;2024-01-27T02:27:32;6.88;;;1.65;;
10056;SDS011;5068;51.286;7.518;2024-01-27T02:29:06;6.75;;;1.50;;
10056;SDS011;5068;51.286;7.518;2024-01-27T02:30:38;7.55;;;1.50;;
10056;SDS011;5068;51.286;7.518;2024-01-27T02:32:12;4.65;;;1.60;;
10056;SDS011;5068;51.286;7.518;2024-01-27T02:33:44;4.40;;;1.27;;
10056;SDS011;5068;51.286;7.518;2024-01-27T02:35:18;6.28;;;1.50;;
10056;SDS011;5068;51.286;7.518;2024-01-27T02:36:50;3.67;;;1.10;;
10056;SDS011;5068;51.286;7.518;2024-01-27T02:38:23;4.65;;;1.30;;
10056;SDS011;5068;51.286;7.518;2024-01-27T02:39:57;3.65;;;1.15;;
10056;SDS011;5068;51.286;7.518;2024-01-27T02:41:30;5.18;;;1.20;;
10056;SDS011;5068;51.286;7.518;2024-01-27T02:43:06;8.07;;;1.10;;
10056;SDS011;5068;51.286;7.518;2024-01-27T02:44:40;5.32;;;1.40;;
10056;SDS011;5068;51.286;7.518;2024-01-27T02:46:12;5.28;;;1.20;;
10056;SDS011;5068;51.286;7.518;2024-01-27T02:47:46;3.63;;;1.17;;
10056;SDS011;5068;51.286;7.518;2024-01-27T02:49:19;2.58;;;0.85;;
10056;SDS011;5068;51.286;7.518;2024-01-27T02:50:52;4.15;;;1.27;;
10056;SDS011;5068;51.286;7.518;2024-01-27T02:52:25;7.47;;;1.38;;
10056;SDS011;5068;51.286;7.518;2024-01-27T02:53:58;3.60;;;1.00;;
10056;SDS011;5068;51.286;7.518;2024-01-27T02:57:08;6.18;;;1.17;;
10056;SDS011;5068;51.286;7.518;2024-01-27T02:58:40;6.22;;;0.98;;
10056;SDS011;5068;51.286;7.518;2024-01-27T03:00:14;5.38;;;1.20;;
10056;SDS011;5068;51.286;7.518;2024-01-27T03:01:47;3.75;;;1.10;;
10056;SDS011;5068;51.286;7.518;2024-01-27T03:03:20;3.45;;;0.85;;
10056;SDS011;5068;51.286;7.518;2024-01-27T03:04:52;5.43;;;1.10;;
10056;SDS011;5068;51.286;7.518;2024-01-27T03:06:25;8.30;;;1.35;;
10056;SDS011;5068;51.286;7.518;2024-01-27T03:07:58;4.68;;;1.08;;
10056;SDS011;5068;51.286;7.518;2024-01-27T03:09:31;4.10;;;1.42;;
10056;SDS011;5068;51.286;7.518;2024-01-27T03:11:05;3.55;;;1.20;;
10056;SDS011;5068;51.286;7.518;2024-01-27T03:12:38;3.53;;;1.20;;
10056;SDS011;5068;51.286;7.518;2024-01-27T03:14:12;5.32;;;1.00;;
10056;SDS011;5068;51.286;7.518;2024-01-27T03:15:45;5.72;;;1.73;;
10056;SDS011;5068;51.286;7.518;2024-01-27T03:17:18;4.97;;;1.33;;
10056;SDS011;5068;51.286;7.518;2024-01-27T03:18:51;5.78;;;1.23;;
10056;SDS011;5068;51.286;7.518;2024-01-27T03:20:25;5.55;;;1.15;;
10056;SDS011;5068;51.286;7.518;2024-01-27T03:21:57;6.65;;;1.42;;
10056;SDS011;5068;51.286;7.518;2024-01-27T03:23:30;4.57;;;1.02;;
10056;SDS011;5068;51.286;7.518;2024-01-27T03:25:02;3.30;;;1.35;;
10056;SDS011;5068;51.286;7.518;2024-01-27T03:26:38;2.30;;;0.85;;
10056;SDS011;5068;51.286;7.518;2024-01-27T03:28:11;4.97;;;1.40;;
10056;SDS011;5068;51.286;7.518;2024-01-27T03:29:43;2.92;;;1.13;;
10056;SDS011;5068;51.286;7.518;2024-01-27T03:31:16;6.25;;;1.45;;
10056;SDS011;5068;51.286;7.518;2024-01-27T03:32:49;4.22;;;1.08;;
10056;SDS011;5068;51.286;7.518;2024-01-27T03:34:22;5.50;;;1.15;;
10056;SDS011;5068;51.286;7.518;2024-01-27T03:35:56;5.18;;;1.60;;
10056;SDS011;5068;51.286;7.518;2024-01-27T03:37:30;2.60;;;1.50;;
10056;SDS011;5068;51.286;7.518;2024-01-27T03:39:02;7.28;;;1.20;;
10056;SDS011;5068;51.286;7.518;2024-01-27T03:40:35;3.08;;;1.10;;
10056;SDS011;5068;51.286;7.518;2024-01-27T03:42:09;6.28;;;1.38;;
10056;SDS011;5068;51.286;7.518;2024-01-27T03:43:43;4.03;;;1.40;;
10056;SDS011;5068;51.286;7.518;2024-01-27T03:45:15;2.97;;;1.35;;
10056;SDS011;5068;51.286;7.518;2024-01-27T03:46:48;8.98;;;1.40;;
10056;SDS011;5068;51.286;7.518;2024-01-27T03:48:22;4.53;;;1.20;;
10056;SDS011;5068;51.286;7.518;2024-01-27T03:49:55;4.03;;;1.20;;
10056;SDS011;5068;51.286;7.518;2024-01-27T03:51:28;4.85;;;1.20;;
10056;SDS011;5068;51.286;7.518;2024-01-27T03:53:01;3.47;;;0.88;;
10056;SDS011;5068;51.286;7.518;2024-01-27T03:54:33;2.92;;;1.15;;
10056;SDS011;5068;51.286;7.518;2024-01-27T03:56:07;4.57;;;1.25;;
10056;SDS011;5068;51.286;7.518;2024-01-27T03:57:44;5.25;;;1.05;;
10056;SDS011;5068;51.286;7.518;2024-01-27T03:59:17;4.97;;;1.38;;
10056;SDS011;5068;51.286;7.518;2024-01-27T04:00:49;4.10;;;1.45;;
10056;SDS011;5068;51.286;7.518;2024-01-27T04:02:23;2.80;;;1.30;;
10056;SDS011;5068;51.286;7.518;2024-01-27T04:03:56;2.88;;;1.23;;
10056;SDS011;5068;51.286;7.518;2024-01-27T04:05:29;4.03;;;1.65;;
10056;SDS011;5068;51.286;7.518;2024-01-27T04:07:02;4.45;;;1.50;;
10056;SDS011;5068;51.286;7.518;2024-01-27T04:08:36;4.72;;;1.40;;
10056;SDS011;5068;51.286;7.518;2024-01-27T04:10:09;4.13;;;1.17;;
10056;SDS011;5068;51.286;7.518;2024-01-27T04:11:43;3.63;;;1.20;;
10056;SDS011;5068;51.286;7.518;2024-01-27T04:13:16;4.05;;;1.30;;
10056;SDS011;5068;51.286;7.518;2024-01-27T04:14:49;6.75;;;1.70;;
10056;SDS011;5068;51.286;7.518;2024-01-27T04:16:22;5.80;;;1.35;;
10056;SDS011;5068;51.286;7.518;2024-01-27T04:17:55;6.00;;;1.50;;
10056;SDS011;5068;51.286;7.518;2024-01-27T04:19:28;3.83;;;1.27;;
10056;SDS011;5068;51.286;7.518;2024-01-27T04:21:01;3.25;;;1.35;;
10056;SDS011;5068;51.286;7.518;2024-01-27T04:22:35;4.05;;;1.50;;
10056;SDS011;5068;51.286;7.518;2024-01-27T04:24:07;4.88;;;1.23;;
10056;SDS011;5068;51.286;7.518;2024-01-27T04:25:41;3.70;;;1.17;;
10056;SDS011;5068;51.286;7.518;2024-01-27T04:27:14;4.95;;;1.95;;
10056;SDS011;5068;51.286;7.518;2024-01-27T04:28:48;3.92;;;1.50;;
10056;SDS011;5068;51.286;7.518;2024-01-27T04:30:20;3.55;;;1.17;;
10056;SDS011;5068;51.286;7.518;2024-01-27T04:31:54;4.63;;;1.30;;
10056;SDS011;5068;51.286;7.518;2024-01-27T04:33:26;2.88;;;1.23;;
10056;SDS011;5068;51.286;7.518;2024-01-27T04:35:00;3.22;;;1.42;;
10056;SDS011;5068;51.286;7.518;2024-01-27T04:36:32;6.93;;;1.73;;
10056;SDS011;5068;51.286;7.518;2024-01-27T04:38:07;4.60;;;1.30;;
10056;SDS011;5068;51.286;7.518;2024-01-27T04:39:39;4.40;;;1.30;;
10056;SDS011;5068;51.286;7.518;2024-01-27T04:41:13;7.95;;;1.55;;
10056;SDS011;5068;51.286;7.518;2024-01-27T04:42:45;3.97;;;1.13;;
10056;SDS011;5068;51.286;7.518;2024-01-27T04:44:19;4.25;;;1.65;;
10056;SDS011;5068;51.286;7.518;2024-01-27T04:45:52;3.00;;;1.10;;
10056;SDS011;5068;51.286;7.518;2024-01-27T04:47:25;5.82;;;1.35;;
10056;SDS011;5068;51.286;7.518;2024-01-27T04:48:58;6.03;;;1.55;;
10056;SDS011;5068;51.286;7.518;2024-01-27T04:50:31;5.93;;;1.20;;
10056;SDS011;5068;51.286;7.518;2024-01-27T04:52:03;5.88;;;1.73;;
10056;SDS011;5068;51.286;7.518;2024-01-27T04:53:37;3.70;;;1.40;;
10056;SDS011;5068;51.286;7.518;2024-01-27T04:55:09;6.25;;;1.92;;
10056;SDS011;5068;51.286;7.518;2024-01-27T04:56:43;4.32;;;1.38;;
10056;SDS011;5068;51.286;7.518;2024-01-27T04:58:16;4.13;;;1.35;;
10056;SDS011;5068;51.286;7.518;2024-01-27T04:59:50;3.33;;;1.33;;
10056;SDS011;5068;51.286;7.518;2024-01-27T05:01:23;8.35;;;1.40;;
10056;SDS011;5068;51.286;7.518;2024-01-27T05:02:56;3.75;;;1.33;;
10056;SDS011;5068;51.286;7.518;2024-01-27T05:04:34;5.32;;;1.40;;
10056;SDS011;5068;51.286;7.518;2024-01-27T05:07:42;6.30;;;1.52;;
10056;SDS011;5068;51.286;7.518;2024-01-27T05:09:15;6.05;;;1.73;;
10056;SDS011;5068;51.286;7.518;2024-01-27T05:10:48;4.45;;;1.50;;
10056;SDS011;5068;51.286;7.518;2024-01-27T05:12:22;4.70;;;1.58;;
10056;SDS011;5068;51.286;7.518;2024-01-27T05:13:54;7.03;;;2.28;;
10056;SDS011;5068;51.286;7.518;2024-01-27T05:15:29;5.00;;;2.25;;
10056;SDS011;5068;51.286;7.518;2024-01-27T05:17:01;6.00;;;1.58;;
10056;SDS011;5068;51.286;7.518;2024-01-27T05:18:35;4.57;;;1.75;;
10056;SDS011;5068;51.286;7.518;2024-01-27T05:20:07;6.35;;;1.95;;
10056;SDS011;5068;51.286;7.518;2024-01-27T05:21:42;6.07;;;1.92;;
10056;SDS011;5068;51.286;7.518;2024-01-27T05:23:14;5.80;;;1.92;;
10056;SDS011;5068;51.286;7.518;2024-01-27T05:24:48;6.90;;;1.70;;
10056;SDS011;5068;51.286;7.518;2024-01-27T05:26:21;5.13;;;1.60;;
10056;SDS011;5068;51.286;7.518;2024-01-27T05:27:54;6.50;;;1.85;;
10056;SDS011;5068;51.286;7.518;2024-01-27T05:29:27;4.20;;;1.98;;
10056;SDS011;5068;51.286;7.518;2024-01-27T05:31:02;5.32;;;1.48;;
10056;SDS011;5068;51.286;7.518;2024-01-27T05:32:36;4.53;;;1.73;;
10056;SDS011;5068;51.286;7.518;2024-01-27T05:34:09;4.68;;;1.70;;
10056;SDS011;5068;51.286;7.518;2024-01-27T05:35:43;5.60;;;1.80;;
10056;SDS011;5068;51.286;7.518;2024-01-27T05:37:15;6.80;;;1.58;;
10056;SDS011;5068;51.286;7.518;2024-01-27T05:38:49;4.72;;;1.80;;
10056;SDS011;5068;51.286;7.518;2024-01-27T05:40:21;6.35;;;1.75;;
10056;SDS011;5068;51.286;7.518;2024-01-27T05:41:54;4.13;;;1.77;;
10056;SDS011;5068;51.286;7.518;2024-01-27T05:43:27;7.72;;;1.80;;
10056;SDS011;5068;51.286;7.518;2024-01-27T05:45:00;5.72;;;1.50;;
10056;SDS011;5068;51.286;7.518;2024-01-27T05:46:35;4.43;;;1.95;;
10056;SDS011;5068;51.286;7.518;2024-01-27T05:48:08;5.53;;;1.48;;
10056;SDS011;5068;51.286;7.518;2024-01-27T05:49:41;5.45;;;1.70;;
10056;SDS011;5068;51.286;7.518;2024-01-27T05:51:14;3.00;;;1.60;;
10056;SDS011;5068;51.286;7.518;2024-01-27T05:52:47;6.75;;;1.80;;
10056;SDS011;5068;51.286;7.518;2024-01-27T05:54:20;6.10;;;2.10;;
10056;SDS011;5068;51.286;7.518;2024-01-27T05:55:53;4.50;;;1.98;;
10056;SDS011;5068;51.286;7.518;2024-01-27T05:57:28;5.97;;;2.03;;
10056;SDS011;5068;51.286;7.518;2024-01-27T05:59:01;5.03;;;1.58;;
10056;SDS011;5068;51.286;7.518;2024-01-27T06:00:34;5.85;;;1.88;;
10056;SDS011;5068;51.286;7.518;2024-01-27T06:02:08;4.47;;;1.77;;
10056;SDS011;5068;51.286;7.518;2024-01-27T06:03:41;5.22;;;1.85;;
10056;SDS011;5068;51.286;7.518;2024-01-27T06:05:14;4.18;;;1.80;;
10056;SDS011;5068;51.286;7.518;2024-01-27T06:06:47;5.80;;;1.42;;
10056;SDS011;5068;51.286;7.518;2024-01-27T06:08:20;3.47;;;1.52;;
10056;SDS011;5068;51.286;7.518;2024-01-27T06:09:53;4.50;;;1.92;;
10056;SDS011;5068;51.286;7.518;2024-01-27T06:11:26;5.68;;;1.92;;
10056;SDS011;5068;51.286;7.518;2024-01-27T06:12:59;5.05;;;1.85;;
10056;SDS011;5068;51.286;7.518;2024-01-27T06:14:31;4.38;;;1.92;;
10056;SDS011;5068;51.286;7.518;2024-01-27T06:16:06;6.13;;;2.30;;
10056;SDS011;5068;51.286;7.518;2024-01-27T06:17:41;4.63;;;1.63;;
10056;SDS011;5068;51.286;7.518;2024-01-27T06:19:14;4.45;;;1.70;;
10056;SDS011;5068;51.286;7.518;2024-01-27T06:20:47;5.65;;;1.95;;
10056;SDS011;5068;51.286;7.518;2024-01-27T06:22:20;7.88;;;1.80;;
10056;SDS011;5068;51.286;7.518;2024-01-27T06:23:54;4.30;;;1.65;;
10056;SDS011;5068;51.286;7.518;2024-01-27T06:25:26;6.82;;;2.30;;
10056;SDS011;5068;51.286;7.518;2024-01-27T06:27:00;5.28;;;1.80;;
10056;SDS011;5068;51.286;7.518;2024-01-27T06:28:32;4.65;;;1.80;;
10056;SDS011;5068;51.286;7.518;2024-01-27T06:30:06;5.13;;;1.90;;
10056;SDS011;5068;51.286;7.518;2024-01-27T06:31:41;6.15;;;2.00;;
10056;SDS011;5068;51.286;7.518;2024-01-27T06:33:17;8.43;;;2.13;;
10056;SDS011;5068;51.286;7.518;2024-01-27T06:34:50;5.70;;;1.95;;
10056;SDS011;5068;51.286;7.518;2024-01-27T06:36:25;4.30;;;1.73;;
10056;SDS011;5068;51.286;7.518;2024-01-27T06:37:58;7.25;;;2.10;;
10056;SDS011;5068;51.286;7.518;2024-01-27T06:39:32;6.40;;;2.03;;
10056;SDS011;5068;51.286;7.518;2024-01-27T06:41:04;5.63;;;1.90;;
10056;SDS011;5068;51.286;7.518;2024-01-27T06:42:37;5.60;;;2.03;;
10056;SDS011;5068;51.286;7.518;2024-01-27T06:44:10;5.57;;;2.03;;
10056;SDS011;5068;51.286;7.518;2024-01-27T06:45:43;5.65;;;1.88;;
10056;SDS011;5068;51.286;7.518;2024-01-27T06:47:17;6.80;;;1.90;;
10056;SDS011;5068;51.286;7.518;2024-01-27T06:48:50;4.47;;;1.83;;
10056;SDS011;5068;51.286;7.518;2024-01-27T06:50:24;5.05;;;2.22;;
10056;SDS011;5068;51.286;7.518;2024-01-27T06:51:56;5.70;;;3.42;;
10056;SDS011;5068;51.286;7.518;2024-01-27T06:53:30;5.78;;;2.15;;
10056;SDS011;5068;51.286;7.518;2024-01-27T06:55:02;6.47;;;2.25;;
10056;SDS011;5068;51.286;7.518;2024-01-27T06:56:38;5.45;;;2.40;;
10056;SDS011;5068;51.286;7.518;2024-01-27T06:58:12;6.03;;;2.10;;
10056;SDS011;5068;51.286;7.518;2024-01-27T06:59:45;5.10;;;2.50;;
10056;SDS011;5068;51.286;7.518;2024-01-27T07:01:23;5.97;;;2.28;;
10056;SDS011;5068;51.286;7.518;2024-01-27T07:02:57;6.50;;;2.45;;
10056;SDS011;5068;51.286;7.518;2024-01-27T07:04:31;6.55;;;2.17;;
10056;SDS011;5068;51.286;7.518;2024-01-27T07:06:04;6.55;;;2.22;;
10056;SDS011;5068;51.286;7.518;2024-01-27T07:07:37;5.75;;;1.85;;
10056;SDS011;5068;51.286;7.518;2024-01-27T07:09:10;3.92;;;2.05;;
10056;SDS011;5068;51.286;7.518;2024-01-27T07:10:44;6.90;;;2.47;;
10056;SDS011;5068;51.286;7.518;2024-01-27T07:12:17;5.65;;;2.30;;
10056;SDS011;5068;51.286;7.518;2024-01-27T07:13:50;6.97;;;2.67;;
10056;SDS011;5068;51.286;7.518;2024-01-27T07:15:22;6.35;;;2.15;;
10056;SDS011;5068;51.286;7.518;2024-01-27T07:16:56;8.05;;;1.88;;
10056;SDS011;5068;51.286;7.518;2024-01-27T07:18:28;5.45;;;2.20;;
10056;SDS011;5068;51.286;7.518;2024-01-27T07:20:04;7.95;;;2.00;;
10056;SDS011;5068;51.286;7.518;2024-01-27T07:21:38;7.10;;;2.13;;
10056;SDS011;5068;51.286;7.518;2024-01-27T07:23:11;5.78;;;2.00;;
10056;SDS011;5068;51.286;7.518;2024-01-27T07:24:44;4.82;;;2.10;;
10056;SDS011;5068;51.286;7.518;2024-01-27T07:26:17;4.97;;;2.17;;
10056;SDS011;5068;51.286;7.518;2024-01-27T07:27:50;5.88;;;2.55;;
10056;SDS011;5068;51.286;7.518;2024-01-27T07:29:23;5.10;;;2.35;;
10056;SDS011;5068;51.286;7.518;2024-01-27T07:30:56;5.40;;;2.42;;
10056;SDS011;5068;51.286;7.518;2024-01-27T07:32:28;8.07;;;2.30;;
10056;SDS011;5068;51.286;7.518;2024-01-27T07:34:02;6.53;;;2.50;;
10056;SDS011;5068;51.286;7.518;2024-01-27T07:35:35;6.47;;;2.20;;
10056;SDS011;5068;51.286;7.518;2024-01-27T07:37:09;4.15;;;2.50;;
10056;SDS011;5068;51.286;7.518;2024-01-27T07:38:42;6.32;;;2.42;;
10056;SDS011;5068;51.286;7.518;2024-01-27T07:40:14;6.68;;;2.80;;
10056;SDS011;5068;51.286;7.518;2024-01-27T07:41:48;4.38;;;2.13;;
10056;SDS011;5068;51.286;7.518;2024-01-27T07:43:20;5.15;;;1.95;;
10056;SDS011;5068;51.286;7.518;2024-01-27T07:44:53;6.13;;;2.53;;
10056;SDS011;5068;51.286;7.518;2024-01-27T07:46:26;5.47;;;2.75;;
10056;SDS011;5068;51.286;7.518;2024-01-27T07:47:59;7.20;;;2.28;;
10056;SDS011;5068;51.286;7.518;2024-01-27T07:49:33;6.10;;;2.25;;
10056;SDS011;5068;51.286;7.518;2024-01-27T07:51:07;4.85;;;2.58;;
10056;SDS011;5068;51.286;7.518;2024-01-27T07:52:40;7.53;;;2.67;;
10056;SDS011;5068;51.286;7.518;2024-01-27T07:54:13;5.28;;;2.40;;
10056;SDS011;5068;51.286;7.518;2024-01-27T07:55:46;6.20;;;2.30;;
10056;SDS011;5068;51.286;7.518;2024-01-27T07:57:19;5.85;;;2.28;;
10056;SDS011;5068;51.286;7.518;2024-01-27T07:58:52;7.50;;;2.22;;
10056;SDS011;5068;51.286;7.518;2024-01-27T08:00:26;5.82;;;2.30;;
10056;SDS011;5068;51.286;7.518;2024-01-27T08:01:59;6.25;;;2.35;;
10056;SDS011;5068;51.286;7.518;2024-01-27T08:03:32;6.72;;;2.00;;
10056;SDS011;5068;51.286;7.518;2024-01-27T08:05:05;4.10;;;2.30;;
10056;SDS011;5068;51.286;7.518;2024-01-27T08:06:47;6.65;;;2.38;;
10056;SDS011;5068;51.286;7.518;2024-01-27T08:08:21;5.90;;;2.13;;
10056;SDS011;5068;51.286;7.518;2024-01-27T08:09:55;4.72;;;2.13;;
10056;SDS011;5068;51.286;7.518;2024-01-27T08:11:28;3.85;;;2.05;;
10056;SDS011;5068;51.286;7.518;2024-01-27T08:13:05;7.47;;;2.70;;
10056;SDS011;5068;51.286;7.518;2024-01-27T08:14:38;5.80;;;1.92;;
10056;SDS011;5068;51.286;7.518;2024-01-27T08:16:11;8.50;;;2.60;;
10056;SDS011;5068;51.286;7.518;2024-01-27T08:17:45;5.35;;;2.40;;
10056;SDS011;5068;51.286;7.518;2024-01-27T08:19:19;8.40;;;3.03;;
10056;SDS011;5068;51.286;7.518;2024-01-27T08:20:52;6.53;;;2.67;;
10056;SDS011;5068;51.286;7.518;2024-01-27T08:22:27;5.38;;;2.17;;
10056;SDS011;5068;51.286;7.518;2024-01-27T08:24:10;2.85;;;2.13;;
10056;SDS011;5068;51.286;7.518;2024-01-27T08:25:44;4.70;;;2.05;;
10056;SDS011;5068;51.286;7.518;2024-01-27T08:27:19;5.95;;;2.63;;
10056;SDS011;5068;51.286;7.518;2024-01-27T08:28:52;5.07;;;2.10;;
10056;SDS011;5068;51.286;7.518;2024-01-27T08:30:27;4.88;;;1.95;;
10056;SDS011;5068;51.286;7.518;2024-01-27T08:32:01;3.85;;;2.20;;
10056;SDS011;5068;51.286;7.518;2024-01-27T08:33:34;4.38;;;1.95;;
10056;SDS011;5068;51.286;7.518;2024-01-27T08:35:08;10.18;;;2.42;;
10056;SDS011;5068;51.286;7.518;2024-01-27T08:36:42;5.75;;;2.30;;
10056;SDS011;5068;51.286;7.518;2024-01-27T08:38:17;4.22;;;2.25;;
10056;SDS011;5068;51.286;7.518;2024-01-27T08:39:49;4.90;;;2.50;;
10056;SDS011;5068;51.286;7.518;2024-01-27T08:41:23;5.82;;;2.40;;
10056;SDS011;5068;51.286;7.518;2024-01-27T08:43:00;6.80;;;2.40;;
10056;SDS011;5068;51.286;7.518;2024-01-27T08:44:33;5.75;;;2.10;;
10056;SDS011;5068;51.286;7.518;2024-01-27T08:46:05;6.32;;;2.42;;
10056;SDS011;5068;51.286;7.518;2024-01-27T08:47:42;6.80;;;3.45;;
10056;SDS011;5068;51.286;7.518;2024-01-27T08:49:15;7.00;;;2.47;;
10056;SDS011;5068;51.286;7.518;2024-01-27T08:50:48;4.63;;;2.35;;
10056;SDS011;5068;51.286;7.518;2024-01-27T08:52:20;9.32;;;3.50;;
10056;SDS011;5068;51.286;7.518;2024-01-27T08:53:55;7.82;;;2.70;;
10056;SDS011;5068;51.286;7.518;2024-01-27T08:55:27;5.35;;;2.90;;
10056;SDS011;5068;51.286;7.518;2024-01-27T08:57:01;8.32;;;3.33;;
10056;SDS011;5068;51.286;7.518;2024-01-27T08:58:34;6.40;;;2.83;;
10056;SDS011;5068;51.286;7.518;2024-01-27T09:00:11;7.15;;;2.97;;
10056;SDS011;5068;51.286;7.518;2024-01-27T09:01:44;6.40;;;2.58;;
10056;SDS011;5068;51.286;7.518;2024-01-27T09:03:18;8.02;;;3.08;;
10056;SDS011;5068;51.286;7.518;2024-01-27T09:04:51;4.93;;;2.83;;
10056;SDS011;5068;51.286;7.518;2024-01-27T09:06:25;5.60;;;2.92;;
10056;SDS011;5068;51.286;7.518;2024-01-27T09:08:02;7.05;;;2.72;;
10056;SDS011;5068;51.286;7.518;2024-01-27T09:09:37;9.30;;;2.75;;
10056;SDS011;5068;51.286;7.518;2024-01-27T09:11:10;6.00;;;2.38;;
10056;SDS011;5068;51.286;7.518;2024-01-27T09:12:43;4.78;;;2.80;;
10056;SDS011;5068;51.286;7.518;2024-01-27T09:14:16;5.47;;;2.50;;
10056;SDS011;5068;51.286;7.518;2024-01-27T09:15:49;5.22;;;2.80;;
10056;SDS011;5068;51.286;7.518;2024-01-27T09:17:22;6.03;;;2.35;;
10056;SDS011;5068;51.286;7.518;2024-01-27T09:18:55;5.40;;;2.38;;
10056;SDS011;5068;51.286;7.518;2024-01-27T09:20:27;7.22;;;2.53;;
10056;SDS011;5068;51.286;7.518;2024-01-27T09:22:00;5.82;;;2.10;;
10056;SDS011;5068;51.286;7.518;2024-01-27T09:23:33;4.13;;;2.22;;
10056;SDS011;5068;51.286;7.518;2024-01-27T09:25:08;5.10;;;2.75;;
10056;SDS011;5068;51.286;7.518;2024-01-27T09:26:40;4.78;;;2.47;;
10056;SDS011;5068;51.286;7.518;2024-01-27T09:28:14;7.80;;;3.28;;
10056;SDS011;5068;51.286;7.518;2024-01-27T09:29:47;8.30;;;4.10;;
10056;SDS011;5068;51.286;7.518;2024-01-27T09:31:21;12.65;;;6.30;;
10056;SDS011;5068;51.286;7.518;2024-01-27T09:32:55;24.98;;;10.98;;
10056;SDS011;5068;51.286;7.518;2024-01-27T09:34:27;22.00;;;9.48;;